Time,TemperatureF,DewpointF,PressureIn,WindDirection,WindDirectionDegrees,WindSpeedMPH,WindSpeedGustMPH,Humidity,HourlyPrecipIn,Conditions,Clouds,dailyrainin,SoftwareType,DateUTC
2013-09-17 00:03:00,57.5,54.9,29.69,West,276,0.0,11.0,91,0.00,,,0.00,Wunderground v.1.15,2013-09-17 07:03:00,
2013-09-17 00:08:00,57.3,54.7,29.69,West,275,0.0,11.0,91,0.00,,,0.00,Wunderground v.1.15,2013-09-17 07:08:00,
2013-09-17 00:13:00,57.2,54.6,29.69,West,275,0.0,11.0,91,0.00,,,0.00,Wunderground v.1.15,2013-09-17 07:13:00,
2013-09-17 00:18:00,57.0,54.4,29.69,West,275,0.0,11.0,91,0.00,,,0.00,Wunderground v.1.15,2013-09-17 07:18:00,
2013-09-17 00:24:00,56.9,54.6,29.69,West,275,0.0,11.0,92,0.00,,,0.00,Wunderground v.1.15,2013-09-17 07:24:00,
2013-09-17 00:29:00,56.8,54.5,29.69,West,275,0.0,11.0,92,0.00,,,0.00,Wunderground v.1.15,2013-09-17 07:29:00,
2013-09-17 00:34:00,56.8,54.5,29.69,West,275,0.0,11.0,92,0.00,,,0.00,Wunderground v.1.15,2013-09-17 07:34:00,
2013-09-17 00:39:00,56.7,54.4,29.69,West,276,0.0,11.0,92,0.00,,,0.00,Wunderground v.1.15,2013-09-17 07:39:00,
2013-09-17 00:44:00,56.6,54.3,29.69,West,275,0.0,11.0,92,0.00,,,0.00,Wunderground v.1.15,2013-09-17 07:44:00,
2013-09-17 00:49:00,56.4,54.1,29.69,West,275,0.0,11.0,92,0.00,,,0.00,Wunderground v.1.15,2013-09-17 07:49:00,
2013-09-17 00:54:00,56.3,54.0,29.69,West,275,0.0,11.0,92,0.00,,,0.00,Wunderground v.1.15,2013-09-17 07:54:00,
2013-09-17 00:59:00,56.2,53.9,29.69,West,275,0.0,11.0,92,0.00,,,0.00,Wunderground v.1.15,2013-09-17 07:59:00,
2013-09-17 01:05:00,56.0,53.7,29.69,West,275,0.0,11.0,92,0.00,,,0.00,Wunderground v.1.15,2013-09-17 08:05:00,
2013-09-17 01:10:00,55.9,53.9,29.69,West,275,0.0,11.0,93,0.00,,,0.00,Wunderground v.1.15,2013-09-17 08:10:00,
2013-09-17 01:15:00,55.8,53.8,29.69,West,275,0.0,11.0,93,0.00,,,0.00,Wunderground v.1.15,2013-09-17 08:15:00,
2013-09-17 01:20:00,55.6,53.6,29.69,West,275,0.0,11.0,93,0.00,,,0.00,Wunderground v.1.15,2013-09-17 08:20:00,
2013-09-17 01:25:00,55.5,53.5,29.69,West,275,0.0,11.0,93,0.00,,,0.00,Wunderground v.1.15,2013-09-17 08:25:00,
2013-09-17 01:30:00,55.5,53.5,29.69,West,275,0.0,11.0,93,0.00,,,0.00,Wunderground v.1.15,2013-09-17 08:30:00,
2013-09-17 01:36:00,55.5,53.5,29.69,West,275,0.0,11.0,93,0.00,,,0.00,Wunderground v.1.15,2013-09-17 08:36:00,
2013-09-17 01:41:00,55.5,53.5,29.69,West,275,0.0,11.0,93,0.00,,,0.00,Wunderground v.1.15,2013-09-17 08:41:00,
2013-09-17 01:47:00,55.4,53.4,29.69,West,275,0.0,11.0,93,0.00,,,0.00,Wunderground v.1.15,2013-09-17 08:47:00,
2013-09-17 01:52:00,55.3,53.6,29.70,West,275,0.0,11.0,94,0.00,,,0.00,Wunderground v.1.15,2013-09-17 08:52:00,
2013-09-17 01:57:00,55.2,53.2,29.70,West,275,0.0,11.0,93,0.00,,,0.00,Wunderground v.1.15,2013-09-17 08:57:00,
2013-09-17 02:02:00,54.9,52.9,29.69,West,275,0.0,11.0,93,0.00,,,0.00,Wunderground v.1.15,2013-09-17 09:02:00,
2013-09-17 02:07:00,54.6,52.6,29.69,West,275,0.0,11.0,93,0.00,,,0.00,Wunderground v.1.15,2013-09-17 09:07:00,
2013-09-17 02:12:00,54.5,52.5,29.69,West,275,0.0,11.0,93,0.00,,,0.00,Wunderground v.1.15,2013-09-17 09:12:00,
2013-09-17 02:17:00,54.4,52.4,29.69,West,276,0.0,11.0,93,0.00,,,0.00,Wunderground v.1.15,2013-09-17 09:17:00,
2013-09-17 02:22:00,54.3,52.6,29.69,West,275,0.0,11.0,94,0.00,,,0.00,Wunderground v.1.15,2013-09-17 09:22:00,
2013-09-17 02:27:00,54.2,52.5,29.69,West,275,0.0,11.0,94,0.00,,,0.00,Wunderground v.1.15,2013-09-17 09:27:00,
2013-09-17 02:32:00,54.1,52.4,29.69,West,275,0.0,11.0,94,0.00,,,0.00,Wunderground v.1.15,2013-09-17 09:32:00,
2013-09-17 02:37:00,53.9,52.2,29.69,West,275,0.0,11.0,94,0.00,,,0.00,Wunderground v.1.15,2013-09-17 09:37:00,
2013-09-17 02:42:00,53.9,52.2,29.69,West,276,0.0,11.0,94,0.00,,,0.00,Wunderground v.1.15,2013-09-17 09:42:00,
2013-09-17 02:47:00,54.0,52.6,29.68,West,276,0.0,11.0,95,0.00,,,0.00,Wunderground v.1.15,2013-09-17 09:47:00,
2013-09-17 02:52:00,54.0,52.3,29.68,West,275,0.0,11.0,94,0.00,,,0.00,Wunderground v.1.15,2013-09-17 09:52:00,
2013-09-17 02:57:00,53.9,52.2,29.68,West,275,0.0,11.0,94,0.00,,,0.00,Wunderground v.1.15,2013-09-17 09:57:00,
2013-09-17 03:02:00,53.9,52.2,29.68,West,275,0.0,11.0,94,0.00,,,0.00,Wunderground v.1.15,2013-09-17 10:02:00,
2013-09-17 03:08:00,53.9,52.5,29.68,West,275,0.0,11.0,95,0.00,,,0.00,Wunderground v.1.15,2013-09-17 10:08:00,
2013-09-17 03:13:00,53.8,52.4,29.68,West,275,0.0,11.0,95,0.00,,,0.00,Wunderground v.1.15,2013-09-17 10:13:00,
2013-09-17 03:18:00,53.7,52.3,29.68,West,275,0.0,11.0,95,0.00,,,0.00,Wunderground v.1.15,2013-09-17 10:18:00,
2013-09-17 03:23:00,53.7,52.3,29.68,West,275,0.0,11.0,95,0.00,,,0.00,Wunderground v.1.15,2013-09-17 10:23:00,
2013-09-17 03:28:00,53.6,51.9,29.69,West,275,0.0,11.0,94,0.00,,,0.00,Wunderground v.1.15,2013-09-17 10:28:00,
2013-09-17 03:34:00,53.4,51.7,29.69,West,275,0.0,11.0,94,0.00,,,0.00,Wunderground v.1.15,2013-09-17 10:34:00,
2013-09-17 03:39:00,53.3,51.6,29.69,West,275,0.0,11.0,94,0.00,,,0.00,Wunderground v.1.15,2013-09-17 10:39:00,
2013-09-17 03:44:00,53.2,51.8,29.69,West,275,0.0,11.0,95,0.00,,,0.00,Wunderground v.1.15,2013-09-17 10:44:00,
2013-09-17 03:49:00,53.2,51.8,29.69,West,276,0.0,11.0,95,0.00,,,0.00,Wunderground v.1.15,2013-09-17 10:49:00,
2013-09-17 03:54:00,53.1,51.7,29.69,West,275,0.0,11.0,95,0.00,,,0.00,Wunderground v.1.15,2013-09-17 10:54:00,
2013-09-17 03:59:00,53.0,51.6,29.69,West,275,0.0,11.0,95,0.00,,,0.00,Wunderground v.1.15,2013-09-17 10:59:00,
2013-09-17 04:04:00,52.9,51.2,29.69,West,275,0.0,11.0,94,0.00,,,0.00,Wunderground v.1.15,2013-09-17 11:04:00,
2013-09-17 04:09:00,52.8,51.4,29.69,West,275,0.0,11.0,95,0.00,,,0.00,Wunderground v.1.15,2013-09-17 11:09:00,
2013-09-17 04:16:00,52.8,51.4,29.69,West,275,0.0,11.0,95,0.00,,,0.00,Wunderground v.1.15,2013-09-17 11:16:00,
2013-09-17 04:21:00,52.8,51.4,29.69,West,275,0.0,11.0,95,0.00,,,0.00,Wunderground v.1.15,2013-09-17 11:21:00,
2013-09-17 04:26:00,52.7,51.3,29.69,West,275,0.0,11.0,95,0.00,,,0.00,Wunderground v.1.15,2013-09-17 11:26:00,
2013-09-17 04:31:00,52.7,51.3,29.69,West,275,0.0,11.0,95,0.00,,,0.00,Wunderground v.1.15,2013-09-17 11:31:00,
2013-09-17 04:36:00,52.7,51.3,29.69,West,275,0.0,11.0,95,0.00,,,0.00,Wunderground v.1.15,2013-09-17 11:36:00,
2013-09-17 04:41:00,52.6,51.2,29.70,West,275,0.0,11.0,95,0.00,,,0.00,Wunderground v.1.15,2013-09-17 11:41:00,
2013-09-17 04:46:00,52.5,51.1,29.70,West,275,0.0,11.0,95,0.00,,,0.00,Wunderground v.1.15,2013-09-17 11:46:00,
2013-09-17 04:51:00,52.4,51.0,29.69,West,275,0.0,11.0,95,0.00,,,0.00,Wunderground v.1.15,2013-09-17 11:51:00,
2013-09-17 04:56:00,52.4,51.0,29.69,West,275,0.0,11.0,95,0.00,,,0.00,Wunderground v.1.15,2013-09-17 11:56:00,
2013-09-17 05:01:00,52.4,51.0,29.69,West,275,0.0,11.0,95,0.00,,,0.00,Wunderground v.1.15,2013-09-17 12:01:00,
2013-09-17 05:06:00,52.3,50.9,29.69,West,275,0.0,11.0,95,0.00,,,0.00,Wunderground v.1.15,2013-09-17 12:06:00,
2013-09-17 05:11:00,52.1,50.7,29.69,West,275,0.0,11.0,95,0.00,,,0.00,Wunderground v.1.15,2013-09-17 12:11:00,
2013-09-17 05:16:00,52.0,50.6,29.69,West,275,0.0,11.0,95,0.00,,,0.00,Wunderground v.1.15,2013-09-17 12:16:00,
2013-09-17 05:21:00,51.9,50.5,29.69,West,275,0.0,11.0,95,0.00,,,0.00,Wunderground v.1.15,2013-09-17 12:21:00,
2013-09-17 05:26:00,51.9,50.5,29.69,West,275,0.0,11.0,95,0.00,,,0.00,Wunderground v.1.15,2013-09-17 12:26:00,
2013-09-17 05:31:00,51.7,50.3,29.69,West,275,0.0,11.0,95,0.00,,,0.00,Wunderground v.1.15,2013-09-17 12:31:00,
2013-09-17 05:36:00,51.6,50.2,29.69,West,275,0.0,11.0,95,0.00,,,0.00,Wunderground v.1.15,2013-09-17 12:36:00,
2013-09-17 05:41:00,51.5,50.4,29.69,West,275,0.0,11.0,96,0.00,,,0.00,Wunderground v.1.15,2013-09-17 12:41:00,
2013-09-17 05:46:00,51.5,50.4,29.69,West,275,0.0,11.0,96,0.00,,,0.00,Wunderground v.1.15,2013-09-17 12:46:00,
2013-09-17 05:52:00,51.5,50.4,29.69,West,275,0.0,11.0,96,0.00,,,0.00,Wunderground v.1.15,2013-09-17 12:52:00,
2013-09-17 05:57:00,51.5,50.4,29.70,West,275,0.0,11.0,96,0.00,,,0.00,Wunderground v.1.15,2013-09-17 12:57:00,
2013-09-17 06:03:00,51.4,50.3,29.70,West,275,0.0,11.0,96,0.00,,,0.00,Wunderground v.1.15,2013-09-17 13:03:00,
2013-09-17 06:08:00,51.5,50.4,29.70,West,275,0.0,11.0,96,0.00,,,0.00,Wunderground v.1.15,2013-09-17 13:08:00,
2013-09-17 06:13:00,51.6,50.5,29.70,West,275,0.0,11.0,96,0.00,,,0.00,Wunderground v.1.15,2013-09-17 13:13:00,
2013-09-17 06:18:00,51.6,50.5,29.70,West,275,0.0,11.0,96,0.00,,,0.00,Wunderground v.1.15,2013-09-17 13:18:00,
2013-09-17 06:23:00,51.5,50.4,29.70,West,275,0.0,11.0,96,0.00,,,0.00,Wunderground v.1.15,2013-09-17 13:23:00,
2013-09-17 06:28:00,51.5,50.4,29.70,West,275,0.0,11.0,96,0.00,,,0.00,Wunderground v.1.15,2013-09-17 13:28:00,
2013-09-17 06:33:00,51.5,50.4,29.70,West,275,0.0,11.0,96,0.00,,,0.00,Wunderground v.1.15,2013-09-17 13:33:00,
2013-09-17 06:38:00,51.5,50.4,29.70,West,275,0.0,11.0,96,0.00,,,0.00,Wunderground v.1.15,2013-09-17 13:38:00,
2013-09-17 06:43:00,51.5,50.4,29.70,West,275,0.0,11.0,96,0.00,,,0.00,Wunderground v.1.15,2013-09-17 13:43:00,
2013-09-17 06:48:00,51.4,50.3,29.71,West,275,0.0,11.0,96,0.00,,,0.00,Wunderground v.1.15,2013-09-17 13:48:00,
2013-09-17 06:53:00,51.3,50.2,29.71,West,275,0.0,11.0,96,0.00,,,0.00,Wunderground v.1.15,2013-09-17 13:53:00,
2013-09-17 06:58:00,51.3,50.2,29.71,West,275,0.0,11.0,96,0.00,,,0.00,Wunderground v.1.15,2013-09-17 13:58:00,
2013-09-17 07:03:00,51.1,50.0,29.71,West,275,0.0,11.0,96,0.00,,,0.00,Wunderground v.1.15,2013-09-17 14:03:00,
2013-09-17 07:08:00,51.0,49.9,29.72,West,275,0.0,11.0,96,0.00,,,0.00,Wunderground v.1.15,2013-09-17 14:08:00,
2013-09-17 07:13:00,50.8,49.7,29.72,West,275,0.0,11.0,96,0.00,,,0.00,Wunderground v.1.15,2013-09-17 14:13:00,
2013-09-17 07:18:00,50.9,49.8,29.72,West,275,0.0,11.0,96,0.00,,,0.00,Wunderground v.1.15,2013-09-17 14:18:00,
2013-09-17 07:24:00,51.1,50.0,29.72,West,275,0.0,11.0,96,0.00,,,0.00,Wunderground v.1.15,2013-09-17 14:24:00,
2013-09-17 07:28:00,51.3,50.5,29.72,West,275,0.0,11.0,97,0.00,,,0.00,Wunderground v.1.15,2013-09-17 14:28:00,
2013-09-17 07:34:00,51.5,50.7,29.73,West,275,0.0,11.0,97,0.00,,,0.00,Wunderground v.1.15,2013-09-17 14:34:00,
2013-09-17 07:39:00,51.8,51.0,29.72,West,275,0.0,11.0,97,0.00,,,0.00,Wunderground v.1.15,2013-09-17 14:39:00,
2013-09-17 07:44:00,52.1,51.3,29.72,West,276,0.0,11.0,97,0.00,,,0.00,Wunderground v.1.15,2013-09-17 14:44:00,
2013-09-17 07:50:00,52.4,51.6,29.72,West,275,0.0,11.0,97,0.00,,,0.00,Wunderground v.1.15,2013-09-17 14:50:00,
2013-09-17 07:55:00,53.1,52.6,29.72,West,275,0.0,11.0,98,0.00,,,0.00,Wunderground v.1.15,2013-09-17 14:55:00,
2013-09-17 08:00:00,53.6,53.0,29.72,West,275,0.0,11.0,98,0.00,,,0.00,Wunderground v.1.15,2013-09-17 15:00:00,
2013-09-17 08:05:00,54.0,53.4,29.72,West,275,0.0,11.0,98,0.00,,,0.00,Wunderground v.1.15,2013-09-17 15:05:00,
2013-09-17 08:10:00,54.4,53.6,29.72,West,276,0.0,11.0,97,0.00,,,0.00,Wunderground v.1.15,2013-09-17 15:10:00,
2013-09-17 08:15:00,54.8,54.0,29.72,West,275,0.0,11.0,97,0.00,,,0.00,Wunderground v.1.15,2013-09-17 15:15:00,
2013-09-17 08:20:00,55.1,54.0,29.72,West,275,0.0,11.0,96,0.00,,,0.00,Wunderground v.1.15,2013-09-17 15:20:00,
2013-09-17 08:25:00,55.5,54.4,29.72,West,276,0.0,11.0,96,0.00,,,0.00,Wunderground v.1.15,2013-09-17 15:25:00,
2013-09-17 08:31:00,55.9,54.8,29.73,West,275,0.0,11.0,96,0.00,,,0.00,Wunderground v.1.15,2013-09-17 15:31:00,
2013-09-17 08:36:00,56.3,55.2,29.73,West,275,0.0,11.0,96,0.00,,,0.00,Wunderground v.1.15,2013-09-17 15:36:00,
2013-09-17 08:42:00,56.7,55.3,29.72,West,276,0.0,11.0,95,0.00,,,0.00,Wunderground v.1.15,2013-09-17 15:42:00,
2013-09-17 08:47:00,57.0,55.6,29.72,West,276,0.0,11.0,95,0.00,,,0.00,Wunderground v.1.15,2013-09-17 15:47:00,
2013-09-17 08:52:00,57.3,55.9,29.72,West,276,0.0,11.0,95,0.00,,,0.00,Wunderground v.1.15,2013-09-17 15:52:00,
2013-09-17 08:57:00,57.9,56.8,29.72,West,276,0.0,11.0,96,0.00,,,0.00,Wunderground v.1.15,2013-09-17 15:57:00,
2013-09-17 09:02:00,58.6,56.9,29.72,West,276,0.0,11.0,94,0.00,,,0.00,Wunderground v.1.15,2013-09-17 16:02:00,
2013-09-17 09:07:00,59.5,57.2,29.72,West,276,0.0,11.0,92,0.00,,,0.00,Wunderground v.1.15,2013-09-17 16:07:00,
2013-09-17 09:12:00,60.2,57.3,29.72,West,276,0.0,11.0,90,0.00,,,0.00,Wunderground v.1.15,2013-09-17 16:12:00,
2013-09-17 09:17:00,61.2,57.9,29.72,West,276,1.0,11.0,89,0.00,,,0.00,Wunderground v.1.15,2013-09-17 16:17:00,
2013-09-17 09:22:00,62.1,58.2,29.72,West,263,1.0,11.0,87,0.00,,,0.00,Wunderground v.1.15,2013-09-17 16:22:00,
2013-09-17 09:27:00,62.6,58.7,29.72,West,263,1.0,11.0,87,0.00,,,0.00,Wunderground v.1.15,2013-09-17 16:27:00,
2013-09-17 09:32:00,63.1,58.5,29.72,SW,219,1.0,11.0,85,0.00,,,0.00,Wunderground v.1.15,2013-09-17 16:32:00,
2013-09-17 09:37:00,63.5,58.9,29.72,SW,236,1.0,11.0,85,0.00,,,0.00,Wunderground v.1.15,2013-09-17 16:37:00,
2013-09-17 09:42:00,63.9,59.3,29.72,SW,230,1.0,11.0,85,0.00,,,0.00,Wunderground v.1.15,2013-09-17 16:42:00,
2013-09-17 09:47:00,64.6,59.7,29.72,SW,231,0.0,11.0,84,0.00,,,0.00,Wunderground v.1.15,2013-09-17 16:47:00,
2013-09-17 09:52:00,65.3,60.0,29.72,SW,233,0.0,11.0,83,0.00,,,0.00,Wunderground v.1.15,2013-09-17 16:52:00,
2013-09-17 09:57:00,66.3,60.3,29.71,SW,230,0.0,11.0,81,0.00,,,0.00,Wunderground v.1.15,2013-09-17 16:57:00,
2013-09-17 10:02:00,66.9,60.9,29.71,SW,231,0.0,11.0,81,0.00,,,0.00,Wunderground v.1.15,2013-09-17 17:02:00,
2013-09-17 10:07:00,67.6,60.9,29.71,SW,236,0.0,11.0,79,0.00,,,0.00,Wunderground v.1.15,2013-09-17 17:07:00,
2013-09-17 10:12:00,68.1,60.6,29.71,WSW,238,1.0,11.0,77,0.00,,,0.00,Wunderground v.1.15,2013-09-17 17:12:00,
2013-09-17 10:19:00,68.5,60.6,29.71,SW,233,1.0,11.0,76,0.00,,,0.00,Wunderground v.1.15,2013-09-17 17:19:00,
2013-09-17 10:24:00,69.0,61.1,29.71,WNW,282,1.0,11.0,76,0.00,,,0.00,Wunderground v.1.15,2013-09-17 17:24:00,
2013-09-17 10:29:00,69.6,60.9,29.71,West,275,0.0,11.0,74,0.00,,,0.00,Wunderground v.1.15,2013-09-17 17:29:00,
2013-09-17 10:34:00,70.3,61.2,29.71,WSW,257,2.0,11.0,73,0.00,,,0.00,Wunderground v.1.15,2013-09-17 17:34:00,
2013-09-17 10:39:00,71.2,61.3,29.71,WNW,302,3.0,11.0,71,0.00,,,0.00,Wunderground v.1.15,2013-09-17 17:39:00,
2013-09-17 10:44:00,72.1,61.4,29.71,WNW,301,2.0,11.0,69,0.00,,,0.00,Wunderground v.1.15,2013-09-17 17:44:00,
2013-09-17 10:49:00,72.4,62.5,29.71,West,265,3.0,11.0,71,0.00,,,0.00,Wunderground v.1.15,2013-09-17 17:49:00,
2013-09-17 10:55:00,73.0,61.4,29.71,West,263,3.0,11.0,67,0.00,,,0.00,Wunderground v.1.15,2013-09-17 17:55:00,
2013-09-17 11:01:00,72.8,61.6,29.71,WNW,292,3.0,11.0,68,0.00,,,0.00,Wunderground v.1.15,2013-09-17 18:01:00,
2013-09-17 11:06:00,73.1,61.9,29.71,SSW,213,3.0,11.0,68,0.00,,,0.00,Wunderground v.1.15,2013-09-17 18:06:00,
2013-09-17 11:11:00,73.1,61.1,29.71,SW,231,3.0,11.0,66,0.00,,,0.00,Wunderground v.1.15,2013-09-17 18:11:00,
2013-09-17 11:16:00,73.1,61.5,29.71,West,271,3.0,11.0,67,0.00,,,0.00,Wunderground v.1.15,2013-09-17 18:16:00,
2013-09-17 11:21:00,72.8,61.2,29.71,WNW,294,4.0,11.0,67,0.00,,,0.00,Wunderground v.1.15,2013-09-17 18:21:00,
2013-09-17 11:26:00,73.4,61.8,29.70,WSW,242,3.0,11.0,67,0.00,,,0.00,Wunderground v.1.15,2013-09-17 18:26:00,
2013-09-17 11:31:00,73.8,61.7,29.70,West,279,3.0,11.0,66,0.00,,,0.00,Wunderground v.1.15,2013-09-17 18:31:00,
2013-09-17 11:36:00,74.3,62.2,29.70,WNW,284,3.0,11.0,66,0.00,,,0.00,Wunderground v.1.15,2013-09-17 18:36:00,
2013-09-17 11:42:00,74.6,62.1,29.69,WNW,288,3.0,11.0,65,0.00,,,0.00,Wunderground v.1.15,2013-09-17 18:42:00,
2013-09-17 11:47:00,75.4,62.4,29.70,West,273,3.0,11.0,64,0.00,,,0.00,Wunderground v.1.15,2013-09-17 18:47:00,
2013-09-17 11:53:00,75.9,62.4,29.70,West,277,2.0,11.0,63,0.00,,,0.00,Wunderground v.1.15,2013-09-17 18:53:00,
2013-09-17 11:58:00,76.4,62.4,29.69,WNW,295,3.0,11.0,62,0.00,,,0.00,Wunderground v.1.15,2013-09-17 18:58:00,
2013-09-17 12:03:00,76.4,62.0,29.69,WSW,257,3.0,11.0,61,0.00,,,0.00,Wunderground v.1.15,2013-09-17 19:03:00,
2013-09-17 12:08:00,76.4,62.0,29.69,West,275,4.0,11.0,61,0.00,,,0.00,Wunderground v.1.15,2013-09-17 19:08:00,
2013-09-17 12:13:00,76.6,62.1,29.69,West,271,4.0,11.0,61,0.00,,,0.00,Wunderground v.1.15,2013-09-17 19:13:00,
2013-09-17 12:18:00,76.4,62.4,29.69,WNW,282,4.0,11.0,62,0.00,,,0.00,Wunderground v.1.15,2013-09-17 19:18:00,
2013-09-17 12:23:00,76.7,62.7,29.69,West,269,4.0,11.0,62,0.00,,,0.00,Wunderground v.1.15,2013-09-17 19:23:00,
2013-09-17 12:28:00,76.7,63.2,29.69,NW,304,4.0,11.0,63,0.00,,,0.00,Wunderground v.1.15,2013-09-17 19:28:00,
2013-09-17 12:33:00,76.9,63.8,29.69,West,269,4.0,11.0,64,0.00,,,0.00,Wunderground v.1.15,2013-09-17 19:33:00,
2013-09-17 12:38:00,77.0,62.5,29.69,WNW,294,5.0,11.0,61,0.00,,,0.00,Wunderground v.1.15,2013-09-17 19:38:00,
2013-09-17 12:43:00,76.8,62.8,29.69,WNW,302,5.0,11.0,62,0.00,,,0.00,Wunderground v.1.15,2013-09-17 19:43:00,
2013-09-17 12:48:00,76.7,62.2,29.69,NW,315,4.0,11.0,61,0.00,,,0.00,Wunderground v.1.15,2013-09-17 19:48:00,
2013-09-17 12:53:00,76.6,62.6,29.69,West,281,5.0,11.0,62,0.00,,,0.00,Wunderground v.1.15,2013-09-17 19:53:00,
2013-09-17 12:58:00,76.7,62.7,29.68,SW,217,5.0,11.0,62,0.00,,,0.00,Wunderground v.1.15,2013-09-17 19:58:00,
2013-09-17 13:03:00,76.8,62.8,29.68,West,276,4.0,11.0,62,0.00,,,0.00,Wunderground v.1.15,2013-09-17 20:03:00,
2013-09-17 13:08:00,76.7,63.2,29.68,West,260,4.0,11.0,63,0.00,,,0.00,Wunderground v.1.15,2013-09-17 20:08:00,
2013-09-17 13:13:00,77.0,63.0,29.68,WNW,284,4.0,11.0,62,0.00,,,0.00,Wunderground v.1.15,2013-09-17 20:13:00,
2013-09-17 13:18:00,77.6,63.1,29.68,WNW,290,4.0,11.0,61,0.00,,,0.00,Wunderground v.1.15,2013-09-17 20:18:00,
2013-09-17 13:23:00,77.3,63.3,29.67,WSW,246,4.0,12.0,62,0.00,,,0.00,Wunderground v.1.15,2013-09-17 20:23:00,
2013-09-17 13:30:00,77.2,63.2,29.67,WSW,250,5.0,5.0,62,0.00,,,0.00,Wunderground v.1.15,2013-09-17 20:30:00,
2013-09-17 13:35:00,76.7,63.2,29.67,WNW,302,5.0,11.0,63,0.00,,,0.00,Wunderground v.1.15,2013-09-17 20:35:00,
2013-09-17 13:40:00,76.9,62.9,29.67,WNW,286,3.0,11.0,62,0.00,,,0.00,Wunderground v.1.15,2013-09-17 20:40:00,
2013-09-17 13:45:00,77.2,62.7,29.67,WSW,253,3.0,11.0,61,0.00,,,0.00,Wunderground v.1.15,2013-09-17 20:45:00,
2013-09-17 13:50:00,77.2,63.2,29.67,SW,234,4.0,4.0,62,0.00,,,0.00,Wunderground v.1.15,2013-09-17 20:50:00,
2013-09-17 13:55:00,76.6,62.6,29.67,West,281,5.0,11.0,62,0.00,,,0.00,Wunderground v.1.15,2013-09-17 20:55:00,
2013-09-17 14:00:00,76.0,62.9,29.67,WNW,288,6.0,6.0,64,0.00,,,0.00,Wunderground v.1.15,2013-09-17 21:00:00,
2013-09-17 14:05:00,76.1,62.6,29.67,SW,228,5.0,11.0,63,0.00,,,0.00,Wunderground v.1.15,2013-09-17 21:05:00,
2013-09-17 14:10:00,76.8,62.8,29.67,West,279,3.0,11.0,62,0.00,,,0.00,Wunderground v.1.15,2013-09-17 21:10:00,
2013-09-17 14:16:00,77.0,62.5,29.67,WNW,292,4.0,11.0,61,0.00,,,0.00,Wunderground v.1.15,2013-09-17 21:16:00,
2013-09-17 14:21:00,76.7,62.7,29.67,West,271,4.0,11.0,62,0.00,,,0.00,Wunderground v.1.15,2013-09-17 21:21:00,
2013-09-17 14:26:00,76.6,62.6,29.66,WSW,246,4.0,11.0,62,0.00,,,0.00,Wunderground v.1.15,2013-09-17 21:26:00,
2013-09-17 14:31:00,76.4,62.4,29.66,SSW,212,5.0,11.0,62,0.00,,,0.00,Wunderground v.1.15,2013-09-17 21:31:00,
2013-09-17 14:36:00,76.5,63.0,29.66,West,281,4.0,11.0,63,0.00,,,0.00,Wunderground v.1.15,2013-09-17 21:36:00,
2013-09-17 14:41:00,76.6,62.6,29.66,West,276,4.0,11.0,62,0.00,,,0.00,Wunderground v.1.15,2013-09-17 21:41:00,
2013-09-17 14:46:00,76.7,62.7,29.65,WSW,256,4.0,11.0,62,0.00,,,0.00,Wunderground v.1.15,2013-09-17 21:46:00,
2013-09-17 14:51:00,76.3,62.3,29.65,West,275,4.0,11.0,62,0.00,,,0.00,Wunderground v.1.15,2013-09-17 21:51:00,
2013-09-17 14:56:00,76.2,62.2,29.65,NW,306,5.0,11.0,62,0.00,,,0.00,Wunderground v.1.15,2013-09-17 21:56:00,
2013-09-17 15:01:00,76.1,61.7,29.65,West,277,5.0,11.0,61,0.00,,,0.00,Wunderground v.1.15,2013-09-17 22:01:00,
2013-09-17 15:07:00,75.8,61.4,29.65,WSW,244,5.0,11.0,61,0.00,,,0.00,Wunderground v.1.15,2013-09-17 22:07:00,
2013-09-17 15:13:00,75.9,61.5,29.65,WNW,291,5.0,11.0,61,0.00,,,0.00,Wunderground v.1.15,2013-09-17 22:13:00,
2013-09-17 15:18:00,76.3,61.9,29.65,WNW,290,4.0,11.0,61,0.00,,,0.00,Wunderground v.1.15,2013-09-17 22:18:00,
2013-09-17 15:23:00,76.6,62.1,29.65,NW,324,4.0,14.0,61,0.00,,,0.00,Wunderground v.1.15,2013-09-17 22:23:00,
2013-09-17 15:28:00,76.4,61.5,29.65,West,265,4.0,14.0,60,0.00,,,0.00,Wunderground v.1.15,2013-09-17 22:28:00,
2013-09-17 15:33:00,76.3,61.9,29.65,West,276,4.0,11.0,61,0.00,,,0.00,Wunderground v.1.15,2013-09-17 22:33:00,
2013-09-17 15:38:00,76.6,61.7,29.65,WSW,251,4.0,11.0,60,0.00,,,0.00,Wunderground v.1.15,2013-09-17 22:38:00,
2013-09-17 15:43:00,76.2,61.3,29.65,WNW,283,5.0,11.0,60,0.00,,,0.00,Wunderground v.1.15,2013-09-17 22:43:00,
2013-09-17 15:49:00,75.6,60.7,29.65,West,277,4.0,11.0,60,0.00,,,0.00,Wunderground v.1.15,2013-09-17 22:49:00,
2013-09-17 15:54:00,75.7,60.8,29.65,West,281,3.0,11.0,60,0.00,,,0.00,Wunderground v.1.15,2013-09-17 22:54:00,
2013-09-17 15:59:00,75.6,60.3,29.64,West,277,4.0,4.0,59,0.00,,,0.00,Wunderground v.1.15,2013-09-17 22:59:00,
2013-09-17 16:04:00,75.5,60.2,29.64,WSW,240,5.0,11.0,59,0.00,,,0.00,Wunderground v.1.15,2013-09-17 23:04:00,
2013-09-17 16:09:00,75.3,60.0,29.64,West,271,5.0,5.0,59,0.00,,,0.00,Wunderground v.1.15,2013-09-17 23:09:00,
2013-09-17 16:15:00,75.7,60.8,29.64,NNW,340,4.0,11.0,60,0.00,,,0.00,Wunderground v.1.15,2013-09-17 23:15:00,
2013-09-17 16:20:00,76.0,60.2,29.64,WNW,294,3.0,11.0,58,0.00,,,0.00,Wunderground v.1.15,2013-09-17 23:20:00,
2013-09-17 16:25:00,75.9,60.5,29.64,West,281,3.0,11.0,59,0.00,,,0.00,Wunderground v.1.15,2013-09-17 23:25:00,
2013-09-17 16:31:00,75.3,60.0,29.64,NW,306,4.0,11.0,59,0.00,,,0.00,Wunderground v.1.15,2013-09-17 23:31:00,
2013-09-17 16:36:00,75.1,59.8,29.64,West,265,5.0,12.0,59,0.00,,,0.00,Wunderground v.1.15,2013-09-17 23:36:00,
2013-09-17 16:41:00,74.8,60.0,29.64,West,273,5.0,11.0,60,0.00,,,0.00,Wunderground v.1.15,2013-09-17 23:41:00,
2013-09-17 16:46:00,74.6,59.8,29.64,WSW,257,4.0,11.0,60,0.00,,,0.00,Wunderground v.1.15,2013-09-17 23:46:00,
2013-09-17 16:51:00,74.5,59.7,29.64,WNW,298,4.0,11.0,60,0.00,,,0.00,Wunderground v.1.15,2013-09-17 23:51:00,
2013-09-17 16:56:00,74.6,59.8,29.64,WNW,285,4.0,11.0,60,0.00,,,0.00,Wunderground v.1.15,2013-09-17 23:56:00,
2013-09-17 17:01:00,74.5,59.7,29.64,West,276,3.0,11.0,60,0.00,,,0.00,Wunderground v.1.15,2013-09-18 00:01:00,
2013-09-17 17:06:00,74.5,59.7,29.63,WNW,287,2.0,11.0,60,0.00,,,0.00,Wunderground v.1.15,2013-09-18 00:06:00,
2013-09-17 17:11:00,74.6,59.3,29.63,WNW,287,2.0,11.0,59,0.00,,,0.00,Wunderground v.1.15,2013-09-18 00:11:00,
2013-09-17 17:16:00,74.8,59.5,29.63,WNW,298,1.0,11.0,59,0.00,,,0.00,Wunderground v.1.15,2013-09-18 00:16:00,
2013-09-17 17:22:00,75.0,59.7,29.63,NW,308,1.0,11.0,59,0.00,,,0.00,Wunderground v.1.15,2013-09-18 00:22:00,
2013-09-17 17:28:00,74.9,59.6,29.63,WNW,290,2.0,11.0,59,0.00,,,0.00,Wunderground v.1.15,2013-09-18 00:28:00,
2013-09-17 17:33:00,74.9,59.6,29.63,West,262,1.0,11.0,59,0.00,,,0.00,Wunderground v.1.15,2013-09-18 00:33:00,
2013-09-17 17:38:00,74.8,59.5,29.63,West,269,1.0,11.0,59,0.00,,,0.00,Wunderground v.1.15,2013-09-18 00:38:00,
2013-09-17 17:43:00,74.6,59.3,29.63,West,271,2.0,11.0,59,0.00,,,0.00,Wunderground v.1.15,2013-09-18 00:43:00,
2013-09-17 17:48:00,74.2,59.4,29.63,NW,306,2.0,11.0,60,0.00,,,0.00,Wunderground v.1.15,2013-09-18 00:48:00,
2013-09-17 17:53:00,73.8,59.5,29.63,West,267,1.0,11.0,61,0.00,,,0.00,Wunderground v.1.15,2013-09-18 00:53:00,
2013-09-17 17:58:00,73.3,59.5,29.63,West,280,1.0,11.0,62,0.00,,,0.00,Wunderground v.1.15,2013-09-18 00:58:00,
2013-09-17 18:03:00,72.8,59.5,29.64,West,271,1.0,11.0,63,0.00,,,0.00,Wunderground v.1.15,2013-09-18 01:03:00,
2013-09-17 18:09:00,72.2,59.3,29.64,West,273,1.0,11.0,64,0.00,,,0.00,Wunderground v.1.15,2013-09-18 01:09:00,
2013-09-17 18:14:00,71.6,59.2,29.64,West,265,1.0,11.0,65,0.00,,,0.00,Wunderground v.1.15,2013-09-18 01:14:00,
2013-09-17 18:19:00,71.2,59.3,29.64,West,265,1.0,1.0,66,0.00,,,0.00,Wunderground v.1.15,2013-09-18 01:19:00,
2013-09-17 18:25:00,70.8,59.3,29.64,West,267,0.0,11.0,67,0.00,,,0.00,Wunderground v.1.15,2013-09-18 01:25:00,
2013-09-17 18:30:00,70.4,59.3,29.64,West,269,0.0,11.0,68,0.00,,,0.00,Wunderground v.1.15,2013-09-18 01:30:00,
2013-09-17 18:35:00,69.9,59.3,29.64,West,269,0.0,11.0,69,0.00,,,0.00,Wunderground v.1.15,2013-09-18 01:35:00,
2013-09-17 18:40:00,69.6,59.4,29.64,West,269,0.0,11.0,70,0.00,,,0.00,Wunderground v.1.15,2013-09-18 01:40:00,
2013-09-17 18:45:00,69.3,59.5,29.64,West,269,0.0,11.0,71,0.00,,,0.00,Wunderground v.1.15,2013-09-18 01:45:00,
2013-09-17 18:51:00,68.8,59.4,29.65,West,269,0.0,11.0,72,0.00,,,0.00,Wunderground v.1.15,2013-09-18 01:51:00,
2013-09-17 18:56:00,68.4,59.0,29.64,West,269,0.0,11.0,72,0.00,,,0.00,Wunderground v.1.15,2013-09-18 01:56:00,
2013-09-17 19:01:00,67.9,59.3,29.64,West,269,0.0,11.0,74,0.00,,,0.00,Wunderground v.1.15,2013-09-18 02:01:00,
2013-09-17 19:06:00,67.4,59.2,29.64,West,269,0.0,11.0,75,0.00,,,0.00,Wunderground v.1.15,2013-09-18 02:06:00,
2013-09-17 19:12:00,67.1,58.9,29.64,West,269,0.0,11.0,75,0.00,,,0.00,Wunderground v.1.15,2013-09-18 02:12:00,
2013-09-17 19:17:00,66.8,59.0,29.64,West,269,0.0,11.0,76,0.00,,,0.00,Wunderground v.1.15,2013-09-18 02:17:00,
2013-09-17 19:22:00,66.5,58.7,29.64,West,269,0.0,11.0,76,0.00,,,0.00,Wunderground v.1.15,2013-09-18 02:22:00,
2013-09-17 19:27:00,66.2,58.8,29.64,West,269,0.0,11.0,77,0.00,,,0.00,Wunderground v.1.15,2013-09-18 02:27:00,
2013-09-17 19:34:00,65.8,58.4,29.64,West,269,0.0,11.0,77,0.00,,,0.00,Wunderground v.1.15,2013-09-18 02:34:00,
2013-09-17 19:39:00,65.5,58.5,29.64,West,269,0.0,11.0,78,0.00,,,0.00,Wunderground v.1.15,2013-09-18 02:39:00,
2013-09-17 19:44:00,65.2,58.2,29.65,West,269,0.0,11.0,78,0.00,,,0.00,Wunderground v.1.15,2013-09-18 02:44:00,
2013-09-17 19:49:00,65.0,58.0,29.65,West,269,0.0,11.0,78,0.00,,,0.00,Wunderground v.1.15,2013-09-18 02:49:00,
2013-09-17 19:54:00,64.7,58.0,29.65,West,269,0.0,11.0,79,0.00,,,0.00,Wunderground v.1.15,2013-09-18 02:54:00,
2013-09-17 19:59:00,64.3,57.6,29.65,West,269,0.0,11.0,79,0.00,,,0.00,Wunderground v.1.15,2013-09-18 02:59:00,
2013-09-17 20:05:00,64.1,57.5,29.65,West,269,0.0,11.0,79,0.00,,,0.00,Wunderground v.1.15,2013-09-18 03:05:00,
2013-09-17 20:10:00,63.8,57.5,29.65,West,269,0.0,11.0,80,0.00,,,0.00,Wunderground v.1.15,2013-09-18 03:10:00,
2013-09-17 20:16:00,63.4,57.5,29.65,West,269,0.0,11.0,81,0.00,,,0.00,Wunderground v.1.15,2013-09-18 03:16:00,
2013-09-17 20:21:00,63.2,57.6,29.65,West,269,0.0,11.0,82,0.00,,,0.00,Wunderground v.1.15,2013-09-18 03:21:00,
2013-09-17 20:26:00,63.0,57.4,29.65,West,269,0.0,11.0,82,0.00,,,0.00,Wunderground v.1.15,2013-09-18 03:26:00,
2013-09-17 20:31:00,62.8,57.6,29.65,West,269,0.0,11.0,83,0.00,,,0.00,Wunderground v.1.15,2013-09-18 03:31:00,
2013-09-17 20:36:00,62.5,57.3,29.65,West,269,0.0,11.0,83,0.00,,,0.00,Wunderground v.1.15,2013-09-18 03:36:00,
2013-09-17 20:42:00,62.3,57.1,29.65,West,269,0.0,11.0,83,0.00,,,0.00,Wunderground v.1.15,2013-09-18 03:42:00,
2013-09-17 20:47:00,62.1,56.9,29.65,West,269,0.0,11.0,83,0.00,,,0.00,Wunderground v.1.15,2013-09-18 03:47:00,
2013-09-17 20:52:00,61.9,56.7,29.65,West,269,0.0,11.0,83,0.00,,,0.00,Wunderground v.1.15,2013-09-18 03:52:00,
2013-09-17 20:58:00,61.7,56.8,29.65,West,269,0.0,11.0,84,0.00,,,0.00,Wunderground v.1.15,2013-09-18 03:58:00,
2013-09-17 21:01:00,61.6,56.7,29.65,West,269,0.0,11.0,84,0.00,,,0.00,Wunderground v.1.15,2013-09-18 04:01:00,
2013-09-17 21:03:00,61.5,56.6,29.65,West,269,0.0,11.0,84,0.00,,,0.00,Wunderground v.1.15,2013-09-18 04:03:00,
2013-09-17 21:05:00,61.4,56.5,29.65,West,269,0.0,11.0,84,0.00,,,0.00,Wunderground v.1.15,2013-09-18 04:05:00,
2013-09-17 21:07:00,61.3,56.4,29.65,West,269,0.0,11.0,84,0.00,,,0.00,Wunderground v.1.15,2013-09-18 04:07:00,
2013-09-17 21:12:00,61.2,56.3,29.65,West,269,0.0,11.0,84,0.00,,,0.00,Wunderground v.1.15,2013-09-18 04:12:00,
2013-09-17 21:17:00,61.0,56.5,29.65,West,269,0.0,11.0,85,0.00,,,0.00,Wunderground v.1.15,2013-09-18 04:17:00,
2013-09-17 21:22:00,60.8,56.3,29.66,West,269,0.0,11.0,85,0.00,,,0.00,Wunderground v.1.15,2013-09-18 04:22:00,
2013-09-17 21:27:00,60.6,56.1,29.66,West,269,0.0,11.0,85,0.00,,,0.00,Wunderground v.1.15,2013-09-18 04:27:00,
2013-09-17 21:32:00,60.4,55.9,29.66,West,269,0.0,11.0,85,0.00,,,0.00,Wunderground v.1.15,2013-09-18 04:32:00,
2013-09-17 21:37:00,60.2,56.0,29.66,West,269,0.0,11.0,86,0.00,,,0.00,Wunderground v.1.15,2013-09-18 04:37:00,
2013-09-17 21:42:00,60.0,55.8,29.66,West,269,0.0,11.0,86,0.00,,,0.00,Wunderground v.1.15,2013-09-18 04:42:00,
2013-09-17 21:47:00,59.9,55.7,29.66,West,269,0.0,11.0,86,0.00,,,0.00,Wunderground v.1.15,2013-09-18 04:47:00,
2013-09-17 21:52:00,59.8,55.9,29.66,West,269,0.0,11.0,87,0.00,,,0.00,Wunderground v.1.15,2013-09-18 04:52:00,
2013-09-17 21:58:00,59.5,55.3,29.66,West,269,0.0,11.0,86,0.00,,,0.00,Wunderground v.1.15,2013-09-18 04:58:00,
2013-09-17 22:03:00,59.3,55.4,29.66,West,269,0.0,11.0,87,0.00,,,0.00,Wunderground v.1.15,2013-09-18 05:03:00,
2013-09-17 22:08:00,59.2,55.3,29.66,West,269,0.0,11.0,87,0.00,,,0.00,Wunderground v.1.15,2013-09-18 05:08:00,
2013-09-17 22:13:00,59.0,55.4,29.66,West,269,0.0,11.0,88,0.00,,,0.00,Wunderground v.1.15,2013-09-18 05:13:00,
2013-09-17 22:19:00,58.9,55.4,29.66,West,269,0.0,11.0,88,0.00,,,0.00,Wunderground v.1.15,2013-09-18 05:19:00,
2013-09-17 22:24:00,58.8,55.3,29.66,West,269,0.0,11.0,88,0.00,,,0.00,Wunderground v.1.15,2013-09-18 05:24:00,
2013-09-17 22:29:00,58.7,55.2,29.66,West,269,0.0,11.0,88,0.00,,,0.00,Wunderground v.1.15,2013-09-18 05:29:00,
2013-09-17 22:34:00,58.5,55.0,29.66,West,269,0.0,11.0,88,0.00,,,0.00,Wunderground v.1.15,2013-09-18 05:34:00,
2013-09-17 22:38:00,58.4,54.9,29.66,West,269,0.0,11.0,88,0.00,,,0.00,Wunderground v.1.15,2013-09-18 05:38:00,
2013-09-17 22:43:00,58.3,55.1,29.66,West,269,0.0,11.0,89,0.00,,,0.00,Wunderground v.1.15,2013-09-18 05:43:00,
2013-09-17 22:48:00,58.2,55.0,29.66,West,269,0.0,11.0,89,0.00,,,0.00,Wunderground v.1.15,2013-09-18 05:48:00,
2013-09-17 22:54:00,58.1,54.9,29.66,West,269,0.0,11.0,89,0.00,,,0.00,Wunderground v.1.15,2013-09-18 05:54:00,
2013-09-17 22:59:00,58.1,55.2,29.66,West,269,0.0,11.0,90,0.00,,,0.00,Wunderground v.1.15,2013-09-18 05:59:00,
2013-09-17 23:04:00,58.1,55.2,29.66,West,269,0.0,11.0,90,0.00,,,0.00,Wunderground v.1.15,2013-09-18 06:04:00,
2013-09-17 23:09:00,58.0,55.1,29.66,West,269,0.0,11.0,90,0.00,,,0.00,Wunderground v.1.15,2013-09-18 06:09:00,
2013-09-17 23:14:00,57.9,55.0,29.66,West,269,0.0,11.0,90,0.00,,,0.00,Wunderground v.1.15,2013-09-18 06:14:00,
2013-09-17 23:20:00,57.8,54.9,29.66,West,269,0.0,11.0,90,0.00,,,0.00,Wunderground v.1.15,2013-09-18 06:20:00,
2013-09-17 23:25:00,57.7,54.8,29.66,West,269,0.0,11.0,90,0.00,,,0.00,Wunderground v.1.15,2013-09-18 06:25:00,
2013-09-17 23:30:00,57.7,54.8,29.66,West,269,0.0,11.0,90,0.00,,,0.00,Wunderground v.1.15,2013-09-18 06:30:00,
2013-09-17 23:35:00,57.6,54.7,29.66,West,269,0.0,11.0,90,0.00,,,0.00,Wunderground v.1.15,2013-09-18 06:35:00,
2013-09-17 23:40:00,57.5,54.9,29.66,West,269,0.0,11.0,91,0.00,,,0.00,Wunderground v.1.15,2013-09-18 06:40:00,
2013-09-17 23:45:00,57.5,54.9,29.66,West,269,0.0,11.0,91,0.00,,,0.00,Wunderground v.1.15,2013-09-18 06:45:00,
2013-09-17 23:50:00,57.4,54.8,29.66,West,269,0.0,11.0,91,0.00,,,0.00,Wunderground v.1.15,2013-09-18 06:50:00,
2013-09-17 23:55:00,57.3,54.7,29.66,West,269,0.0,11.0,91,0.00,,,0.00,Wunderground v.1.15,2013-09-18 06:55:00,